Ocean Park, Washington
Current Conditions -  °F | °C
As of 9:55 PM on Friday 19 Dec 2014 (Local Time) from KAST Reporting Station
Light Rain Light Rain  
Wind Chill: 45°   Ceiling: 5500
Heat Index: 49°   Visibility: 10mi
Dew Point: 42°   Wind: 10mph
Humidity: 77%   Direction: 150°SSE
Pressure: 29.84"   Gusts: NA
Location:  46.49°N, 124.05°W
Report Text: KAST 200555Z AUTO 15009KT 10SM -RA BKN055 BKN070 OVC080 09/06 A2984 RMK AO2 RAB21 SLP104 P0000 60000 T00940056 10094 20078 56023
Loading
Personal Weather Stations






























Interactive Weather Map New forecast layout! Learn more

10-Day Weather Forecast

Advertisements
Track Severe Weather on mobile